createdAt,value
2019-05-26T00:01:06.655Z,8.08
2019-05-26T00:03:40.294Z,7.70
2019-05-26T00:06:13.739Z,7.47
2019-05-26T00:08:47.233Z,6.95
2019-05-26T00:11:20.785Z,7.10
2019-05-26T00:13:54.280Z,7.33
2019-05-26T00:16:27.762Z,7.47
2019-05-26T00:19:01.285Z,7.00
2019-05-26T00:21:34.817Z,7.25
2019-05-26T00:24:08.315Z,6.78
2019-05-26T00:26:41.783Z,6.65
2019-05-26T00:29:15.369Z,7.17
2019-05-26T00:31:48.839Z,6.50
2019-05-26T00:34:22.405Z,7.12
2019-05-26T00:36:55.872Z,6.85
2019-05-26T00:39:29.369Z,6.62
2019-05-26T00:42:02.973Z,6.55
2019-05-26T00:44:36.543Z,8.55
2019-05-26T00:47:10.209Z,7.15
2019-05-26T00:49:43.723Z,6.78
2019-05-26T00:52:17.323Z,6.58
2019-05-26T00:54:50.973Z,6.62
2019-05-26T00:57:24.586Z,7.50
2019-05-26T00:59:58.245Z,7.15
2019-05-26T01:02:31.761Z,6.90
2019-05-26T01:05:06.778Z,7.50
2019-05-26T01:07:40.384Z,7.83
2019-05-26T01:10:14.242Z,7.28
2019-05-26T01:12:47.727Z,7.83
2019-05-26T01:15:21.567Z,7.25
2019-05-26T01:17:55.029Z,7.50
2019-05-26T01:20:28.625Z,7.50
2019-05-26T01:23:02.095Z,8.50
2019-05-26T01:25:35.686Z,7.62
2019-05-26T01:28:09.287Z,7.85
2019-05-26T01:30:42.826Z,7.92
2019-05-26T01:33:16.357Z,7.50
2019-05-26T01:35:50.391Z,8.10
2019-05-26T01:38:24.798Z,7.08
2019-05-26T01:40:58.322Z,7.05
2019-05-26T01:43:31.799Z,6.33
2019-05-26T01:46:05.436Z,6.40
2019-05-26T01:48:38.919Z,6.90
2019-05-26T01:51:12.491Z,6.35
2019-05-26T01:53:45.979Z,6.78
2019-05-26T01:56:19.595Z,6.72
2019-05-26T01:58:53.582Z,6.60
2019-05-26T02:01:27.187Z,7.10
2019-05-26T02:04:00.677Z,7.12
2019-05-26T02:06:34.255Z,7.05
2019-05-26T02:09:08.655Z,6.97
2019-05-26T02:11:42.173Z,6.22
2019-05-26T02:14:15.646Z,6.97
2019-05-26T02:16:49.227Z,6.60
2019-05-26T02:19:22.932Z,6.85
2019-05-26T02:21:56.529Z,7.50
2019-05-26T02:24:30.048Z,7.08
2019-05-26T02:27:03.675Z,6.70
2019-05-26T02:29:37.228Z,7.37
2019-05-26T02:32:10.796Z,7.05
2019-05-26T02:34:44.257Z,6.95
2019-05-26T02:37:17.932Z,7.60
2019-05-26T02:39:51.457Z,7.47
2019-05-26T02:42:25.111Z,7.12
2019-05-26T02:44:59.543Z,7.30
2019-05-26T02:47:33.286Z,7.17
2019-05-26T02:50:07.913Z,7.10
2019-05-26T02:52:41.487Z,7.17
2019-05-26T02:55:17.205Z,7.17
2019-05-26T02:57:50.840Z,7.35
2019-05-26T03:00:42.740Z,7.62
2019-05-26T03:03:17.067Z,7.30
2019-05-26T03:05:52.065Z,6.97
2019-05-26T03:08:26.807Z,7.78
2019-05-26T03:11:01.338Z,6.87
2019-05-26T03:13:37.966Z,7.28
2019-05-26T03:16:11.666Z,6.87
2019-05-26T03:18:47.507Z,7.00
2019-05-26T03:21:23.171Z,7.60
2019-05-26T03:23:58.165Z,7.10
2019-05-26T03:26:31.872Z,7.20
2019-05-26T03:29:05.541Z,7.00
2019-05-26T03:31:39.057Z,7.05
2019-05-26T03:34:12.549Z,7.30
2019-05-26T03:36:46.040Z,7.20
2019-05-26T03:39:19.677Z,7.00
2019-05-26T03:41:53.144Z,7.50
2019-05-26T03:44:26.739Z,6.90
2019-05-26T03:47:00.273Z,7.30
2019-05-26T03:49:33.896Z,6.72
2019-05-26T03:52:07.510Z,6.97
2019-05-26T03:54:41.035Z,6.53
2019-05-26T03:57:14.646Z,6.62
2019-05-26T03:59:48.271Z,6.42
2019-05-26T04:02:21.827Z,6.45
2019-05-26T04:04:55.415Z,7.35
2019-05-26T04:07:28.971Z,7.35
2019-05-26T04:10:06.099Z,7.00
2019-05-26T04:12:39.534Z,7.45
2019-05-26T04:15:13.440Z,7.65
2019-05-26T04:17:46.956Z,7.67
2019-05-26T04:20:20.554Z,7.58
2019-05-26T04:22:54.042Z,7.90
2019-05-26T04:25:27.554Z,7.37
2019-05-26T04:28:01.034Z,7.28
2019-05-26T04:30:34.554Z,7.53
2019-05-26T04:33:08.127Z,7.97
2019-05-26T04:35:41.692Z,7.97
2019-05-26T04:38:15.287Z,7.58
2019-05-26T04:40:48.810Z,8.88
2019-05-26T04:43:22.282Z,7.75
2019-05-26T04:45:55.841Z,7.78
2019-05-26T04:48:29.406Z,7.33
2019-05-26T04:51:02.975Z,7.15
2019-05-26T04:53:36.442Z,7.55
2019-05-26T04:56:09.940Z,7.37
2019-05-26T04:58:43.486Z,7.37
2019-05-26T05:01:16.982Z,6.80
2019-05-26T05:03:50.542Z,7.25
2019-05-26T05:06:24.179Z,7.55
2019-05-26T05:08:57.753Z,7.20
2019-05-26T05:11:31.313Z,6.60
2019-05-26T05:14:05.219Z,7.28
2019-05-26T05:16:38.795Z,7.20
2019-05-26T05:19:12.416Z,7.55
2019-05-26T05:21:45.917Z,6.67
2019-05-26T05:24:19.472Z,7.12
2019-05-26T05:26:53.031Z,6.92
2019-05-26T05:29:26.565Z,7.40
2019-05-26T05:32:00.039Z,7.08
2019-05-26T05:34:33.716Z,6.95
2019-05-26T05:37:07.366Z,6.47
2019-05-26T05:39:40.823Z,6.75
2019-05-26T05:42:14.389Z,6.50
2019-05-26T05:44:47.870Z,6.08
2019-05-26T05:47:24.420Z,6.25
2019-05-26T05:49:58.002Z,5.70
2019-05-26T05:52:31.493Z,5.85
2019-05-26T05:55:05.949Z,6.35
2019-05-26T05:57:39.571Z,5.85
2019-05-26T06:00:14.807Z,5.55
2019-05-26T06:02:48.406Z,5.47
2019-05-26T06:05:21.897Z,5.95
2019-05-26T06:07:55.431Z,5.30
2019-05-26T06:10:28.985Z,4.95
2019-05-26T06:13:02.469Z,5.62
2019-05-26T06:15:36.008Z,4.35
2019-05-26T06:18:09.661Z,4.85
2019-05-26T06:20:43.785Z,4.85
2019-05-26T06:23:17.273Z,4.90
2019-05-26T06:25:50.807Z,5.17
2019-05-26T06:28:24.363Z,4.87
2019-05-26T06:30:57.898Z,5.08
2019-05-26T06:33:31.453Z,4.50
2019-05-26T06:36:05.071Z,5.22
2019-05-26T06:38:38.638Z,4.65
2019-05-26T06:41:12.101Z,4.60
2019-05-26T06:43:45.713Z,4.08
2019-05-26T06:46:19.315Z,4.62
2019-05-26T06:48:52.955Z,4.75
2019-05-26T06:51:26.425Z,4.97
2019-05-26T06:53:59.987Z,4.22
2019-05-26T06:56:33.529Z,4.78
2019-05-26T06:59:07.179Z,4.33
2019-05-26T07:01:40.661Z,4.72
2019-05-26T07:04:14.219Z,4.62
2019-05-26T07:06:47.688Z,4.90
2019-05-26T07:09:21.259Z,4.70
2019-05-26T07:11:59.976Z,5.10
2019-05-26T07:14:30.084Z,5.50
2019-05-26T07:17:03.648Z,4.92
2019-05-26T07:19:37.122Z,4.67
2019-05-26T07:22:10.666Z,4.72
2019-05-26T07:24:44.146Z,5.28
2019-05-26T07:27:17.632Z,5.30
2019-05-26T07:29:51.200Z,4.97
2019-05-26T07:32:24.839Z,4.78
2019-05-26T07:34:58.333Z,4.95
2019-05-26T07:37:31.934Z,5.17
2019-05-26T07:40:06.891Z,5.00
2019-05-26T07:42:40.360Z,4.80
2019-05-26T07:45:14.293Z,5.12
2019-05-26T07:47:47.764Z,5.42
2019-05-26T07:50:21.379Z,5.37
2019-05-26T07:52:54.916Z,5.25
2019-05-26T07:55:28.633Z,5.90
2019-05-26T07:58:02.210Z,5.83
2019-05-26T08:00:35.852Z,6.08
2019-05-26T08:03:09.281Z,5.37
2019-05-26T08:05:42.853Z,5.25
2019-05-26T08:08:16.483Z,5.45
2019-05-26T08:10:50.464Z,5.00
2019-05-26T08:13:24.082Z,5.60
2019-05-26T08:15:57.562Z,5.17
2019-05-26T08:18:31.189Z,5.70
2019-05-26T08:21:05.018Z,5.60
2019-05-26T08:23:38.521Z,5.60
2019-05-26T08:26:12.324Z,5.58
2019-05-26T08:28:46.024Z,5.50
2019-05-26T08:31:19.678Z,5.15
2019-05-26T08:33:53.254Z,4.70
2019-05-26T08:36:26.960Z,4.78
2019-05-26T08:39:00.594Z,4.20
2019-05-26T08:41:34.299Z,4.62
2019-05-26T08:44:07.993Z,4.50
2019-05-26T08:46:41.614Z,4.75
2019-05-26T08:49:15.154Z,3.85
2019-05-26T08:51:48.797Z,4.92
2019-05-26T08:54:22.330Z,5.12
2019-05-26T08:56:55.895Z,4.78
2019-05-26T08:59:29.431Z,4.58
2019-05-26T09:02:02.991Z,4.15
2019-05-26T09:04:36.419Z,4.03
2019-05-26T09:07:09.990Z,4.47
2019-05-26T09:09:43.566Z,4.33
2019-05-26T09:12:17.142Z,3.67
2019-05-26T09:14:50.851Z,3.65
2019-05-26T09:17:24.428Z,3.90
2019-05-26T09:19:58.247Z,3.95
2019-05-26T09:22:31.983Z,4.50
2019-05-26T09:25:07.186Z,3.85
2019-05-26T09:27:40.872Z,3.65
2019-05-26T09:30:14.579Z,3.95
2019-05-26T09:32:48.320Z,3.77
2019-05-26T09:35:22.004Z,4.05
2019-05-26T09:37:55.473Z,3.77
2019-05-26T09:40:29.157Z,4.10
2019-05-26T09:43:15.146Z,3.77
2019-05-26T09:45:38.216Z,3.65
2019-05-26T09:48:11.753Z,3.12
2019-05-26T09:50:45.421Z,3.75
2019-05-26T09:53:19.018Z,3.30
2019-05-26T09:55:52.673Z,3.47
2019-05-26T09:58:26.330Z,3.45
2019-05-26T10:01:00.009Z,3.90
2019-05-26T10:03:33.579Z,3.00
2019-05-26T10:06:07.098Z,3.08
2019-05-26T10:08:40.720Z,3.40
2019-05-26T10:11:14.319Z,3.35
2019-05-26T10:13:48.009Z,3.17
2019-05-26T10:16:21.478Z,2.80
2019-05-26T10:18:55.019Z,3.42
2019-05-26T10:21:28.605Z,3.00
2019-05-26T10:24:02.053Z,3.83
2019-05-26T10:26:35.677Z,3.20
2019-05-26T10:29:09.415Z,4.50
2019-05-26T10:31:42.899Z,3.92
2019-05-26T10:34:16.377Z,4.37
2019-05-26T10:36:49.878Z,4.10
2019-05-26T10:39:23.348Z,5.00
2019-05-26T10:41:56.830Z,4.67
2019-05-26T10:44:30.368Z,5.12
2019-05-26T10:47:04.032Z,5.67
2019-05-26T10:49:37.507Z,4.90
2019-05-26T10:52:11.006Z,5.92
2019-05-26T10:54:44.517Z,4.92
2019-05-26T10:57:18.078Z,5.37
2019-05-26T10:59:51.601Z,5.30
2019-05-26T11:02:25.234Z,6.53
2019-05-26T11:04:58.812Z,5.78
2019-05-26T11:07:32.265Z,6.65
2019-05-26T11:10:07.861Z,6.45
2019-05-26T11:12:41.481Z,6.00
2019-05-26T11:15:15.398Z,5.53
2019-05-26T11:17:48.963Z,5.80
2019-05-26T11:20:22.686Z,7.15
2019-05-26T11:22:56.344Z,5.58
2019-05-26T11:25:29.980Z,6.08
2019-05-26T11:28:03.659Z,7.30
2019-05-26T11:30:37.281Z,6.72
2019-05-26T11:33:10.807Z,6.92
2019-05-26T11:35:44.345Z,6.87
2019-05-26T11:38:17.902Z,6.53
2019-05-26T11:40:51.440Z,6.65
2019-05-26T11:43:25.057Z,6.20
2019-05-26T11:45:58.678Z,6.12
2019-05-26T11:48:32.141Z,6.22
2019-05-26T11:51:05.840Z,6.10
2019-05-26T11:53:39.554Z,6.10
2019-05-26T11:56:13.197Z,5.72
2019-05-26T11:58:46.914Z,5.90
2019-05-26T12:01:23.133Z,6.33
2019-05-26T12:03:55.827Z,5.70
2019-05-26T12:06:29.438Z,4.90
2019-05-26T12:09:03.758Z,4.87
2019-05-26T12:11:37.324Z,5.90
2019-05-26T12:14:10.888Z,5.80
2019-05-26T12:16:44.351Z,5.65
2019-05-26T12:19:17.859Z,5.97
2019-05-26T12:21:51.323Z,5.72
2019-05-26T12:24:24.989Z,5.08
2019-05-26T12:26:58.514Z,6.20
2019-05-26T12:29:32.076Z,5.53
2019-05-26T12:32:06.088Z,5.97
2019-05-26T12:34:39.726Z,5.03
2019-05-26T12:37:13.193Z,5.72
2019-05-26T12:39:46.695Z,5.85
2019-05-26T12:42:20.242Z,4.47
2019-05-26T12:44:53.792Z,4.67
2019-05-26T12:47:27.258Z,4.83
2019-05-26T12:50:00.756Z,4.15
2019-05-26T12:52:34.290Z,4.90
2019-05-26T12:55:09.892Z,4.53
2019-05-26T12:57:43.614Z,4.80
2019-05-26T13:00:17.904Z,4.85
2019-05-26T13:02:51.439Z,3.87
2019-05-26T13:05:25.238Z,4.12
2019-05-26T13:07:58.886Z,3.90
2019-05-26T13:10:32.532Z,4.65
2019-05-26T13:13:06.905Z,4.25
2019-05-26T13:15:40.578Z,4.72
2019-05-26T13:18:14.328Z,3.67
2019-05-26T13:20:48.102Z,5.28
2019-05-26T13:23:21.655Z,5.15
2019-05-26T13:25:55.280Z,4.87
2019-05-26T13:28:28.832Z,4.42
2019-05-26T13:31:02.489Z,4.47
2019-05-26T13:33:36.113Z,5.03
2019-05-26T13:36:09.762Z,4.90
2019-05-26T13:38:43.508Z,4.70
2019-05-26T13:41:17.229Z,4.78
2019-05-26T13:43:50.793Z,4.30
2019-05-26T13:46:24.440Z,4.90
2019-05-26T13:48:58.073Z,4.28
2019-05-26T13:51:31.766Z,4.10
2019-05-26T13:54:05.605Z,4.72
2019-05-26T13:56:39.194Z,5.40
2019-05-26T13:59:12.852Z,4.78
2019-05-26T14:01:46.614Z,4.80
2019-05-26T14:04:20.214Z,4.60
2019-05-26T14:06:53.799Z,3.95
2019-05-26T14:09:27.435Z,4.28
2019-05-26T14:12:01.133Z,4.20
2019-05-26T14:14:35.260Z,4.25
2019-05-26T14:17:10.670Z,4.17
2019-05-26T14:19:47.186Z,4.50
2019-05-26T14:22:21.017Z,4.65
2019-05-26T14:24:54.626Z,4.60
2019-05-26T14:27:28.303Z,4.35
2019-05-26T14:30:01.984Z,4.15
2019-05-26T14:32:35.588Z,3.70
2019-05-26T14:35:10.041Z,4.25
2019-05-26T14:37:43.757Z,4.08
2019-05-26T14:40:17.531Z,3.95
2019-05-26T14:42:51.655Z,4.80
2019-05-26T14:45:25.378Z,3.95
2019-05-26T14:47:59.092Z,4.60
2019-05-26T14:50:32.716Z,4.03
2019-05-26T14:53:06.378Z,3.80
2019-05-26T14:55:40.086Z,3.20
2019-05-26T14:58:16.045Z,3.62
2019-05-26T15:00:49.244Z,3.98
2019-05-26T15:03:22.953Z,4.08
2019-05-26T15:06:05.558Z,3.42
2019-05-26T15:08:31.755Z,4.00
2019-05-26T15:11:05.785Z,3.90
2019-05-26T15:13:39.394Z,4.65
2019-05-26T15:16:13.126Z,3.50
2019-05-26T15:18:46.787Z,3.90
2019-05-26T15:21:20.540Z,4.15
2019-05-26T15:23:54.185Z,3.50
2019-05-26T15:26:27.914Z,4.47
2019-05-26T15:29:01.664Z,3.92
2019-05-26T15:31:35.321Z,3.90
2019-05-26T15:34:08.955Z,3.67
2019-05-26T15:36:42.697Z,3.95
2019-05-26T15:39:16.373Z,3.50
2019-05-26T15:41:50.112Z,4.17
2019-05-26T15:44:23.729Z,4.05
2019-05-26T15:46:57.339Z,4.62
2019-05-26T15:49:31.010Z,5.40
2019-05-26T15:52:04.659Z,4.45
2019-05-26T15:54:38.373Z,4.70
2019-05-26T15:57:12.075Z,5.12
2019-05-26T15:59:45.689Z,5.00
2019-05-26T16:02:19.396Z,4.75
2019-05-26T16:04:53.072Z,4.35
2019-05-26T16:07:26.727Z,4.60
2019-05-26T16:10:00.332Z,3.75
2019-05-26T16:12:33.838Z,4.90
2019-05-26T16:15:08.857Z,4.12
2019-05-26T16:17:42.431Z,4.87
2019-05-26T16:20:16.435Z,4.25
2019-05-26T16:22:50.082Z,3.40
2019-05-26T16:25:23.695Z,3.47
2019-05-26T16:27:57.462Z,3.02
2019-05-26T16:30:31.116Z,3.65
2019-05-26T16:33:05.423Z,3.40
2019-05-26T16:35:39.144Z,3.83
2019-05-26T16:38:12.711Z,5.67
2019-05-26T16:40:46.457Z,3.15
2019-05-26T16:43:20.193Z,3.67
2019-05-26T16:45:56.426Z,3.87
2019-05-26T16:48:29.095Z,3.90
2019-05-26T16:51:02.763Z,3.40
2019-05-26T16:53:36.329Z,3.47
2019-05-26T16:56:10.059Z,3.85
2019-05-26T16:58:43.529Z,3.58
2019-05-26T17:01:17.206Z,4.15
2019-05-26T17:03:50.819Z,3.62
2019-05-26T17:06:24.633Z,3.60
2019-05-26T17:08:58.369Z,3.52
2019-05-26T17:11:32.046Z,3.42
2019-05-26T17:14:06.194Z,3.67
2019-05-26T17:16:39.892Z,3.98
2019-05-26T17:19:13.517Z,4.00
2019-05-26T17:21:47.204Z,4.42
2019-05-26T17:24:20.792Z,4.25
2019-05-26T17:26:54.452Z,5.00
2019-05-26T17:29:28.120Z,4.65
2019-05-26T17:32:01.829Z,4.95
2019-05-26T17:34:35.478Z,4.37
2019-05-26T17:37:08.988Z,4.58
2019-05-26T17:39:42.599Z,5.03
2019-05-26T17:42:16.310Z,4.90
2019-05-26T17:44:49.923Z,5.20
2019-05-26T17:47:30.311Z,5.33
2019-05-26T17:50:15.052Z,4.92
2019-05-26T17:52:48.700Z,5.03
2019-05-26T17:55:22.370Z,4.80
2019-05-26T17:57:56.039Z,5.85
2019-05-26T18:00:29.688Z,5.25
2019-05-26T18:03:03.245Z,5.45
2019-05-26T18:05:37.008Z,5.30
2019-05-26T18:08:10.580Z,5.50
2019-05-26T18:10:44.282Z,6.12
2019-05-26T18:13:18.093Z,5.03
2019-05-26T18:15:51.751Z,5.20
2019-05-26T18:18:25.424Z,5.50
2019-05-26T18:20:59.032Z,5.55
2019-05-26T18:23:32.779Z,5.45
2019-05-26T18:26:06.491Z,6.10
2019-05-26T18:28:40.110Z,6.47
2019-05-26T18:31:13.774Z,7.17
2019-05-26T18:33:47.385Z,7.37
2019-05-26T18:36:20.994Z,8.10
2019-05-26T18:38:54.843Z,8.30
2019-05-26T18:41:28.324Z,8.93
2019-05-26T18:44:01.973Z,9.60
2019-05-26T18:46:35.641Z,9.83
2019-05-26T18:49:09.331Z,10.75
2019-05-26T18:51:43.096Z,10.68
2019-05-26T18:54:16.863Z,11.33
2019-05-26T18:56:50.371Z,12.53
2019-05-26T18:59:23.992Z,12.15
2019-05-26T19:01:57.620Z,12.82
2019-05-26T19:04:31.161Z,12.73
2019-05-26T19:07:05.072Z,13.32
2019-05-26T19:09:38.722Z,14.87
2019-05-26T19:12:12.710Z,14.65
2019-05-26T19:14:46.314Z,14.23
2019-05-26T19:17:19.961Z,14.70
2019-05-26T19:19:53.817Z,15.40
2019-05-26T19:22:27.531Z,16.32
2019-05-26T19:25:01.239Z,16.20
2019-05-26T19:27:34.981Z,17.73
2019-05-26T19:30:09.850Z,17.40
2019-05-26T19:32:43.582Z,18.15
2019-05-26T19:35:17.377Z,18.27
2019-05-26T19:37:51.006Z,18.55
2019-05-26T19:40:24.709Z,18.62
2019-05-26T19:42:58.341Z,19.85
2019-05-26T19:45:31.990Z,19.80
2019-05-26T19:48:05.746Z,21.30
2019-05-26T19:50:39.401Z,21.77
2019-05-26T19:53:13.059Z,21.12
2019-05-26T19:55:46.676Z,23.12
2019-05-26T19:58:20.160Z,23.32
2019-05-26T20:00:53.860Z,25.23
2019-05-26T20:03:27.607Z,23.92
2019-05-26T20:06:01.282Z,23.80
2019-05-26T20:08:35.628Z,24.12
2019-05-26T20:11:09.311Z,22.40
2019-05-26T20:13:42.951Z,19.98
2019-05-26T20:16:16.761Z,19.65
2019-05-26T20:18:50.377Z,20.05
2019-05-26T20:21:23.985Z,21.07
2019-05-26T20:23:57.544Z,21.02
2019-05-26T20:26:31.209Z,24.35
2019-05-26T20:29:05.077Z,25.10
2019-05-26T20:31:38.665Z,26.17
2019-05-26T20:34:12.250Z,26.15
2019-05-26T20:36:45.952Z,23.83
2019-05-26T20:39:19.618Z,25.57
2019-05-26T20:41:53.159Z,23.52
2019-05-26T20:44:26.707Z,23.80
2019-05-26T20:47:00.227Z,23.75
2019-05-26T20:49:44.881Z,24.35
2019-05-26T20:52:09.019Z,23.85
2019-05-26T20:54:42.493Z,23.35
2019-05-26T20:57:15.993Z,24.63
2019-05-26T20:59:49.622Z,24.47
2019-05-26T21:02:23.129Z,22.85
2019-05-26T21:04:56.621Z,21.75
2019-05-26T21:07:30.127Z,22.30
2019-05-26T21:10:05.236Z,21.87
2019-05-26T21:12:38.961Z,22.48
2019-05-26T21:15:13.075Z,21.60
2019-05-26T21:17:46.577Z,20.23
2019-05-26T21:20:20.717Z,20.43
2019-05-26T21:22:54.385Z,19.55
2019-05-26T21:25:27.927Z,21.75
2019-05-26T21:28:01.567Z,19.90
2019-05-26T21:30:35.973Z,19.92
2019-05-26T21:33:09.539Z,18.95
2019-05-26T21:35:43.025Z,19.00
2019-05-26T21:38:16.568Z,18.20
2019-05-26T21:40:50.072Z,18.40
2019-05-26T21:43:23.559Z,18.25
2019-05-26T21:45:57.119Z,18.40
2019-05-26T21:48:30.745Z,17.55
2019-05-26T21:51:04.424Z,16.90
2019-05-26T21:53:37.985Z,16.45
2019-05-26T21:56:11.628Z,17.95
2019-05-26T21:58:45.123Z,17.82
2019-05-26T22:01:18.659Z,17.37
2019-05-26T22:03:52.244Z,17.05
2019-05-26T22:06:25.855Z,17.05
2019-05-26T22:08:59.424Z,16.27
2019-05-26T22:11:32.987Z,16.10
2019-05-26T22:14:06.631Z,14.63
2019-05-26T22:16:40.119Z,14.73
2019-05-26T22:19:13.636Z,14.83
2019-05-26T22:21:47.178Z,14.68
2019-05-26T22:24:20.717Z,13.80
2019-05-26T22:26:54.264Z,14.00
2019-05-26T22:29:27.762Z,13.25
2019-05-26T22:32:01.241Z,13.90
2019-05-26T22:34:34.756Z,13.90
2019-05-26T22:37:08.310Z,15.80
2019-05-26T22:39:41.876Z,13.18
2019-05-26T22:42:15.360Z,12.82
2019-05-26T22:44:49.050Z,13.28
2019-05-26T22:47:22.519Z,13.20
2019-05-26T22:49:57.754Z,13.03
2019-05-26T22:52:31.241Z,15.15
2019-05-26T22:55:09.003Z,17.90
2019-05-26T22:57:42.488Z,19.37
2019-05-26T23:00:18.137Z,21.60
2019-05-26T23:02:51.648Z,20.77
2019-05-26T23:05:25.158Z,23.70
2019-05-26T23:07:58.648Z,22.90
2019-05-26T23:10:32.147Z,24.12
2019-05-26T23:13:05.740Z,23.27
2019-05-26T23:15:39.201Z,23.85
2019-05-26T23:18:12.688Z,26.75
2019-05-26T23:20:46.338Z,24.32
2019-05-26T23:23:19.802Z,27.22
2019-05-26T23:25:53.439Z,27.70
2019-05-26T23:28:26.988Z,27.75
2019-05-26T23:31:00.549Z,28.73
2019-05-26T23:33:34.019Z,30.10
2019-05-26T23:36:07.614Z,30.95
2019-05-26T23:38:41.095Z,33.25
2019-05-26T23:41:14.636Z,32.23
2019-05-26T23:43:48.102Z,33.88
2019-05-26T23:46:21.675Z,36.15
2019-05-26T23:48:55.144Z,32.83
2019-05-26T23:51:28.736Z,33.63
2019-05-26T23:54:02.217Z,34.90
2019-05-26T23:56:35.714Z,34.63
2019-05-26T23:59:09.199Z,33.35
